sensor_id;sensor_type;location;lat;lon;timestamp;pressure;altitude;pressure_sealevel;temperature;humidity
29569;BME280;16501;51.462;14.346;2022-07-25T00:01:05;100245.84;;;20.09;53.71
29569;BME280;16501;51.462;14.346;2022-07-25T00:03:31;100231.25;;;19.99;53.96
29569;BME280;16501;51.462;14.346;2022-07-25T00:05:56;100255.63;;;20.13;54.21
29569;BME280;16501;51.462;14.346;2022-07-25T00:08:21;100239.94;;;20.07;55.00
29569;BME280;16501;51.462;14.346;2022-07-25T00:10:46;100243.31;;;20.05;55.40
29569;BME280;16501;51.462;14.346;2022-07-25T00:13:12;100242.56;;;20.05;54.99
29569;BME280;16501;51.462;14.346;2022-07-25T00:15:37;100222.78;;;19.93;55.13
29569;BME280;16501;51.462;14.346;2022-07-25T00:18:02;100226.19;;;19.92;55.37
29569;BME280;16501;51.462;14.346;2022-07-25T00:20:28;100237.94;;;20.02;55.74
29569;BME280;16501;51.462;14.346;2022-07-25T00:22:53;100208.19;;;19.84;55.68
29569;BME280;16501;51.462;14.346;2022-07-25T00:25:18;100216.44;;;19.87;55.58
29569;BME280;16501;51.462;14.346;2022-07-25T00:27:44;100205.75;;;19.74;56.16
29569;BME280;16501;51.462;14.346;2022-07-25T00:30:09;100230.88;;;19.89;56.00
29569;BME280;16501;51.462;14.346;2022-07-25T00:32:34;100210.41;;;19.72;56.00
29569;BME280;16501;51.462;14.346;2022-07-25T00:35:00;100209.34;;;19.75;56.31
29569;BME280;16501;51.462;14.346;2022-07-25T00:37:25;100219.13;;;19.80;56.33
29569;BME280;16501;51.462;14.346;2022-07-25T00:39:50;100222.28;;;19.76;56.51
29569;BME280;16501;51.462;14.346;2022-07-25T00:42:16;100207.41;;;19.64;56.29
29569;BME280;16501;51.462;14.346;2022-07-25T00:44:41;100210.41;;;19.72;56.90
29569;BME280;16501;51.462;14.346;2022-07-25T00:47:07;100216.09;;;19.72;56.74
29569;BME280;16501;51.462;14.346;2022-07-25T00:49:32;100205.34;;;19.65;57.26
29569;BME280;16501;51.462;14.346;2022-07-25T00:51:57;100194.88;;;19.54;57.00
29569;BME280;16501;51.462;14.346;2022-07-25T00:54:23;100202.09;;;19.55;56.57
29569;BME280;16501;51.462;14.346;2022-07-25T00:56:49;100205.94;;;19.57;57.10
29569;BME280;16501;51.462;14.346;2022-07-25T00:59:14;100194.41;;;19.50;57.05
29569;BME280;16501;51.462;14.346;2022-07-25T01:01:41;100210.31;;;19.58;57.17
29569;BME280;16501;51.462;14.346;2022-07-25T01:04:07;100198.56;;;19.49;57.78
29569;BME280;16501;51.462;14.346;2022-07-25T01:06:32;100201.19;;;19.47;57.68
29569;BME280;16501;51.462;14.346;2022-07-25T01:08:58;100207.09;;;19.49;57.99
29569;BME280;16501;51.462;14.346;2022-07-25T01:11:24;100201.03;;;19.39;58.60
29569;BME280;16501;51.462;14.346;2022-07-25T01:13:50;100191.03;;;19.32;58.49
29569;BME280;16501;51.462;14.346;2022-07-25T01:16:15;100197.72;;;19.35;58.77
29569;BME280;16501;51.462;14.346;2022-07-25T01:18:41;100161.41;;;19.03;58.85
29569;BME280;16501;51.462;14.346;2022-07-25T01:21:06;100195.63;;;19.16;59.17
29569;BME280;16501;51.462;14.346;2022-07-25T01:23:32;100203.25;;;19.27;58.77
29569;BME280;16501;51.462;14.346;2022-07-25T01:25:58;100194.47;;;19.25;58.66
29569;BME280;16501;51.462;14.346;2022-07-25T01:28:23;100193.25;;;19.20;58.73
29569;BME280;16501;51.462;14.346;2022-07-25T01:30:49;100196.63;;;19.19;58.66
29569;BME280;16501;51.462;14.346;2022-07-25T01:33:15;100174.56;;;19.06;58.65
29569;BME280;16501;51.462;14.346;2022-07-25T01:35:41;100166.56;;;19.05;58.78
29569;BME280;16501;51.462;14.346;2022-07-25T01:38:06;100164.94;;;18.90;59.68
29569;BME280;16501;51.462;14.346;2022-07-25T01:40:31;100171.50;;;19.04;60.02
29569;BME280;16501;51.462;14.346;2022-07-25T01:42:57;100172.84;;;18.97;60.42
29569;BME280;16501;51.462;14.346;2022-07-25T01:45:22;100131.25;;;18.75;59.85
29569;BME280;16501;51.462;14.346;2022-07-25T01:47:47;100163.50;;;19.02;59.75
29569;BME280;16501;51.462;14.346;2022-07-25T01:50:13;100169.94;;;19.03;60.00
29569;BME280;16501;51.462;14.346;2022-07-25T01:52:38;100148.19;;;18.87;60.52
29569;BME280;16501;51.462;14.346;2022-07-25T01:55:04;100168.72;;;18.98;60.42
29569;BME280;16501;51.462;14.346;2022-07-25T01:57:29;100151.56;;;18.85;60.84
29569;BME280;16501;51.462;14.346;2022-07-25T01:59:54;100155.47;;;18.82;61.07
29569;BME280;16501;51.462;14.346;2022-07-25T02:02:20;100168.31;;;18.89;61.41
29569;BME280;16501;51.462;14.346;2022-07-25T02:04:45;100168.09;;;18.87;61.04
29569;BME280;16501;51.462;14.346;2022-07-25T02:07:10;100149.31;;;18.78;61.32
29569;BME280;16501;51.462;14.346;2022-07-25T02:09:35;100167.06;;;18.84;61.41
29569;BME280;16501;51.462;14.346;2022-07-25T02:12:01;100146.50;;;18.72;61.60
29569;BME280;16501;51.462;14.346;2022-07-25T02:14:26;100141.72;;;18.61;62.21
29569;BME280;16501;51.462;14.346;2022-07-25T02:16:52;100158.88;;;18.75;61.92
29569;BME280;16501;51.462;14.346;2022-07-25T02:19:17;100139.41;;;18.60;61.81
29569;BME280;16501;51.462;14.346;2022-07-25T02:21:43;100130.88;;;18.60;62.08
29569;BME280;16501;51.462;14.346;2022-07-25T02:24:08;100124.00;;;18.55;62.31
29569;BME280;16501;51.462;14.346;2022-07-25T02:26:34;100134.03;;;18.56;62.28
29569;BME280;16501;51.462;14.346;2022-07-25T02:28:59;100143.50;;;18.64;62.13
29569;BME280;16501;51.462;14.346;2022-07-25T02:31:24;100115.13;;;18.40;62.57
29569;BME280;16501;51.462;14.346;2022-07-25T02:33:49;100143.34;;;18.57;62.66
29569;BME280;16501;51.462;14.346;2022-07-25T02:36:15;100123.34;;;18.43;62.75
29569;BME280;16501;51.462;14.346;2022-07-25T02:38:40;100131.25;;;18.51;62.74
29569;BME280;16501;51.462;14.346;2022-07-25T02:41:06;100137.69;;;18.51;62.48
29569;BME280;16501;51.462;14.346;2022-07-25T02:43:31;100140.78;;;18.53;63.46
29569;BME280;16501;51.462;14.346;2022-07-25T02:45:56;100140.06;;;18.47;63.53
29569;BME280;16501;51.462;14.346;2022-07-25T02:48:22;100112.94;;;18.27;64.21
29569;BME280;16501;51.462;14.346;2022-07-25T02:50:47;100120.56;;;18.38;64.13
29569;BME280;16501;51.462;14.346;2022-07-25T02:53:12;100132.22;;;18.34;64.65
29569;BME280;16501;51.462;14.346;2022-07-25T02:55:37;100137.81;;;18.40;64.43
29569;BME280;16501;51.462;14.346;2022-07-25T02:58:03;100114.16;;;18.32;64.37
29569;BME280;16501;51.462;14.346;2022-07-25T03:00:28;100134.47;;;18.41;64.77
29569;BME280;16501;51.462;14.346;2022-07-25T03:02:54;100139.38;;;18.41;65.40
29569;BME280;16501;51.462;14.346;2022-07-25T03:05:20;100125.28;;;18.30;65.10
29569;BME280;16501;51.462;14.346;2022-07-25T03:07:45;100140.72;;;18.34;65.39
29569;BME280;16501;51.462;14.346;2022-07-25T03:10:11;100137.91;;;18.28;65.66
29569;BME280;16501;51.462;14.346;2022-07-25T03:12:37;100139.00;;;18.25;65.99
29569;BME280;16501;51.462;14.346;2022-07-25T03:15:03;100140.28;;;18.24;66.50
29569;BME280;16501;51.462;14.346;2022-07-25T03:17:29;100123.91;;;18.12;66.81
29569;BME280;16501;51.462;14.346;2022-07-25T03:19:55;100129.75;;;18.19;66.79
29569;BME280;16501;51.462;14.346;2022-07-25T03:22:21;100129.75;;;18.19;67.27
29569;BME280;16501;51.462;14.346;2022-07-25T03:24:46;100114.66;;;18.05;67.17
29569;BME280;16501;51.462;14.346;2022-07-25T03:27:12;100124.38;;;18.16;66.90
29569;BME280;16501;51.462;14.346;2022-07-25T03:29:37;100120.81;;;18.09;66.75
29569;BME280;16501;51.462;14.346;2022-07-25T03:32:02;100121.47;;;18.21;67.12
29569;BME280;16501;51.462;14.346;2022-07-25T03:34:28;100102.72;;;18.13;67.46
29569;BME280;16501;51.462;14.346;2022-07-25T03:36:53;100115.84;;;18.16;67.77
29569;BME280;16501;51.462;14.346;2022-07-25T03:39:19;100114.56;;;18.17;68.45
29569;BME280;16501;51.462;14.346;2022-07-25T03:41:45;100101.66;;;18.16;68.28
29569;BME280;16501;51.462;14.346;2022-07-25T03:44:10;100094.50;;;18.09;68.62
29569;BME280;16501;51.462;14.346;2022-07-25T03:46:35;100102.50;;;18.11;68.28
29569;BME280;16501;51.462;14.346;2022-07-25T03:49:01;100102.44;;;18.16;68.70
29569;BME280;16501;51.462;14.346;2022-07-25T03:51:26;100086.81;;;18.04;68.50
29569;BME280;16501;51.462;14.346;2022-07-25T03:53:51;100109.66;;;18.17;68.31
29569;BME280;16501;51.462;14.346;2022-07-25T03:58:54;100095.81;;;18.08;69.17
29569;BME280;16501;51.462;14.346;2022-07-25T04:01:19;100089.88;;;18.06;69.11
29569;BME280;16501;51.462;14.346;2022-07-25T04:03:45;100094.28;;;18.07;69.47
29569;BME280;16501;51.462;14.346;2022-07-25T04:06:10;100089.06;;;18.11;69.65
29569;BME280;16501;51.462;14.346;2022-07-25T04:08:35;100095.69;;;18.19;69.88
29569;BME280;16501;51.462;14.346;2022-07-25T04:11:01;100073.34;;;18.10;69.74
29569;BME280;16501;51.462;14.346;2022-07-25T04:13:26;100083.34;;;18.17;69.67
29569;BME280;16501;51.462;14.346;2022-07-25T04:15:51;100061.78;;;18.08;70.03
29569;BME280;16501;51.462;14.346;2022-07-25T04:18:16;100061.78;;;18.08;69.53
29569;BME280;16501;51.462;14.346;2022-07-25T04:20:41;100048.88;;;18.07;69.70
29569;BME280;16501;51.462;14.346;2022-07-25T04:23:07;100073.97;;;18.27;70.19
29569;BME280;16501;51.462;14.346;2022-07-25T04:25:32;100062.66;;;18.22;70.11
29569;BME280;16501;51.462;14.346;2022-07-25T04:27:57;100069.34;;;18.24;70.23
29569;BME280;16501;51.462;14.346;2022-07-25T04:30:23;100064.13;;;18.28;69.74
29569;BME280;16501;51.462;14.346;2022-07-25T04:32:48;100062.31;;;18.31;69.88
29569;BME280;16501;51.462;14.346;2022-07-25T04:35:13;100060.13;;;18.43;70.60
29569;BME280;16501;51.462;14.346;2022-07-25T04:37:38;100062.34;;;18.50;69.84
29569;BME280;16501;51.462;14.346;2022-07-25T04:40:04;100056.91;;;18.52;69.16
29569;BME280;16501;51.462;14.346;2022-07-25T04:42:30;100056.53;;;18.61;68.59
29569;BME280;16501;51.462;14.346;2022-07-25T04:44:55;100038.81;;;18.55;68.37
29569;BME280;16501;51.462;14.346;2022-07-25T04:47:20;100054.84;;;18.72;67.97
29569;BME280;16501;51.462;14.346;2022-07-25T04:49:46;100059.94;;;18.79;67.91
29569;BME280;16501;51.462;14.346;2022-07-25T04:52:11;100027.78;;;18.71;66.30
29569;BME280;16501;51.462;14.346;2022-07-25T04:54:36;100028.31;;;18.69;65.23
29569;BME280;16501;51.462;14.346;2022-07-25T04:57:01;100035.09;;;18.85;65.96
29569;BME280;16501;51.462;14.346;2022-07-25T04:59:29;100030.56;;;18.95;65.12
29569;BME280;16501;51.462;14.346;2022-07-25T05:01:55;100019.44;;;18.97;65.71
29569;BME280;16501;51.462;14.346;2022-07-25T05:04:20;100016.41;;;19.09;66.06
29569;BME280;16501;51.462;14.346;2022-07-25T05:06:45;100026.34;;;19.21;64.19
29569;BME280;16501;51.462;14.346;2022-07-25T05:09:10;100016.94;;;19.26;63.26
29569;BME280;16501;51.462;14.346;2022-07-25T05:11:36;100009.84;;;19.33;63.80
29569;BME280;16501;51.462;14.346;2022-07-25T05:14:01;99982.22;;;19.33;63.54
29569;BME280;16501;51.462;14.346;2022-07-25T05:16:26;100005.56;;;19.58;63.34
29569;BME280;16501;51.462;14.346;2022-07-25T05:18:52;99983.50;;;19.65;63.26
29569;BME280;16501;51.462;14.346;2022-07-25T05:21:17;100003.13;;;19.82;62.66
29569;BME280;16501;51.462;14.346;2022-07-25T05:23:42;100008.16;;;19.89;61.69
29569;BME280;16501;51.462;14.346;2022-07-25T05:26:08;100007.88;;;19.92;61.62
29569;BME280;16501;51.462;14.346;2022-07-25T05:28:34;100002.16;;;20.06;60.81
29569;BME280;16501;51.462;14.346;2022-07-25T05:30:59;100005.56;;;20.18;60.52
29569;BME280;16501;51.462;14.346;2022-07-25T05:33:24;99972.06;;;19.97;61.13
29569;BME280;16501;51.462;14.346;2022-07-25T05:35:50;99992.97;;;20.26;60.66
29569;BME280;16501;51.462;14.346;2022-07-25T05:38:16;100011.03;;;20.56;58.39
29569;BME280;16501;51.462;14.346;2022-07-25T05:40:41;99995.91;;;20.61;58.67
29569;BME280;16501;51.462;14.346;2022-07-25T05:43:07;99999.41;;;20.80;58.29
29569;BME280;16501;51.462;14.346;2022-07-25T05:45:32;100000.88;;;20.95;58.03
29569;BME280;16501;51.462;14.346;2022-07-25T05:47:58;99975.38;;;20.89;57.47
29569;BME280;16501;51.462;14.346;2022-07-25T05:50:23;99989.59;;;21.02;56.65
29569;BME280;16501;51.462;14.346;2022-07-25T05:52:48;99976.44;;;20.99;56.64
29569;BME280;16501;51.462;14.346;2022-07-25T05:55:14;99991.59;;;21.15;56.57
29569;BME280;16501;51.462;14.346;2022-07-25T05:57:39;99986.31;;;21.19;54.78
29569;BME280;16501;51.462;14.346;2022-07-25T06:00:05;99991.75;;;21.31;55.90
29569;BME280;16501;51.462;14.346;2022-07-25T06:02:31;99992.03;;;21.40;54.55
29569;BME280;16501;51.462;14.346;2022-07-25T06:04:57;99979.47;;;21.57;54.96
29569;BME280;16501;51.462;14.346;2022-07-25T06:07:23;99978.00;;;21.63;53.92
29569;BME280;16501;51.462;14.346;2022-07-25T06:09:48;99982.69;;;21.82;54.67
29569;BME280;16501;51.462;14.346;2022-07-25T06:12:13;99956.22;;;21.74;51.28
29569;BME280;16501;51.462;14.346;2022-07-25T06:14:39;99975.13;;;21.84;52.20
29569;BME280;16501;51.462;14.346;2022-07-25T06:17:04;99984.66;;;21.87;52.35
29569;BME280;16501;51.462;14.346;2022-07-25T06:19:29;99964.47;;;21.85;50.83
29569;BME280;16501;51.462;14.346;2022-07-25T06:21:54;99977.94;;;22.06;50.34
29569;BME280;16501;51.462;14.346;2022-07-25T06:24:20;99974.59;;;22.22;50.62
29569;BME280;16501;51.462;14.346;2022-07-25T06:26:45;99956.78;;;22.30;49.07
29569;BME280;16501;51.462;14.346;2022-07-25T06:29:10;99952.56;;;22.31;49.52
29569;BME280;16501;51.462;14.346;2022-07-25T06:31:36;99953.38;;;22.31;49.54
29569;BME280;16501;51.462;14.346;2022-07-25T06:34:01;99960.28;;;22.44;49.89
29569;BME280;16501;51.462;14.346;2022-07-25T06:36:27;99962.47;;;22.66;48.66
29569;BME280;16501;51.462;14.346;2022-07-25T06:38:52;99947.81;;;22.77;49.71
29569;BME280;16501;51.462;14.346;2022-07-25T06:41:18;99949.03;;;23.05;47.16
29569;BME280;16501;51.462;14.346;2022-07-25T06:43:43;99947.72;;;23.06;47.68
29569;BME280;16501;51.462;14.346;2022-07-25T06:46:08;99949.25;;;23.15;47.84
29569;BME280;16501;51.462;14.346;2022-07-25T06:48:34;99960.69;;;23.23;47.48
29569;BME280;16501;51.462;14.346;2022-07-25T06:50:59;99937.81;;;23.23;48.34
29569;BME280;16501;51.462;14.346;2022-07-25T06:53:24;99941.63;;;23.41;47.65
29569;BME280;16501;51.462;14.346;2022-07-25T06:55:49;99947.94;;;23.54;48.00
29569;BME280;16501;51.462;14.346;2022-07-25T06:58:15;99939.53;;;23.64;48.02
29569;BME280;16501;51.462;14.346;2022-07-25T07:00:40;99950.97;;;23.80;47.63
29569;BME280;16501;51.462;14.346;2022-07-25T07:03:05;99951.75;;;23.88;47.99
29569;BME280;16501;51.462;14.346;2022-07-25T07:05:32;99933.41;;;23.99;47.42
29569;BME280;16501;51.462;14.346;2022-07-25T07:07:59;99913.56;;;24.01;46.81
29569;BME280;16501;51.462;14.346;2022-07-25T07:10:25;99927.56;;;24.37;47.38
29569;BME280;16501;51.462;14.346;2022-07-25T07:13:02;99910.59;;;24.32;46.29
29569;BME280;16501;51.462;14.346;2022-07-25T07:15:28;99907.66;;;24.47;46.32
29569;BME280;16501;51.462;14.346;2022-07-25T07:17:53;99907.25;;;24.58;45.31
29569;BME280;16501;51.462;14.346;2022-07-25T07:20:18;99919.94;;;24.73;45.65
29569;BME280;16501;51.462;14.346;2022-07-25T07:22:45;99920.63;;;24.89;44.74
29569;BME280;16501;51.462;14.346;2022-07-25T07:25:12;99899.63;;;24.86;44.92
29569;BME280;16501;51.462;14.346;2022-07-25T07:27:38;99902.84;;;24.90;45.04
29569;BME280;16501;51.462;14.346;2022-07-25T07:30:03;99906.19;;;25.04;43.83
29569;BME280;16501;51.462;14.346;2022-07-25T07:32:29;99902.31;;;25.09;43.58
29569;BME280;16501;51.462;14.346;2022-07-25T07:34:54;99907.19;;;25.24;44.01
29569;BME280;16501;51.462;14.346;2022-07-25T07:37:19;99909.34;;;25.41;43.98
29569;BME280;16501;51.462;14.346;2022-07-25T07:39:45;99914.38;;;25.58;44.08
29569;BME280;16501;51.462;14.346;2022-07-25T07:42:10;99902.59;;;25.71;43.89
29569;BME280;16501;51.462;14.346;2022-07-25T07:44:35;99892.97;;;25.76;43.46
29569;BME280;16501;51.462;14.346;2022-07-25T07:47:00;99905.41;;;25.96;42.26
29569;BME280;16501;51.462;14.346;2022-07-25T07:49:27;99898.22;;;26.05;42.21
29569;BME280;16501;51.462;14.346;2022-07-25T07:51:52;99903.78;;;26.21;42.03
29569;BME280;16501;51.462;14.346;2022-07-25T07:54:17;99897.59;;;26.24;41.19
29569;BME280;16501;51.462;14.346;2022-07-25T07:57:01;99896.59;;;26.29;41.68
29569;BME280;16501;51.462;14.346;2022-07-25T07:59:27;99880.88;;;26.30;41.99
29569;BME280;16501;51.462;14.346;2022-07-25T08:01:52;99899.50;;;26.57;41.74
29569;BME280;16501;51.462;14.346;2022-07-25T08:04:17;99905.22;;;26.74;40.88
29569;BME280;16501;51.462;14.346;2022-07-25T08:06:42;99878.84;;;26.68;41.82
29569;BME280;16501;51.462;14.346;2022-07-25T08:09:08;99889.09;;;26.88;41.08
29569;BME280;16501;51.462;14.346;2022-07-25T08:11:33;99882.00;;;26.89;40.93
29569;BME280;16501;51.462;14.346;2022-07-25T08:13:59;99894.63;;;27.04;40.62
29569;BME280;16501;51.462;14.346;2022-07-25T08:16:24;99897.22;;;27.09;40.75
29569;BME280;16501;51.462;14.346;2022-07-25T08:18:49;99880.38;;;27.33;39.33
29569;BME280;16501;51.462;14.346;2022-07-25T08:21:14;99901.31;;;27.43;39.48
29569;BME280;16501;51.462;14.346;2022-07-25T08:23:40;99902.22;;;27.46;39.23
29569;BME280;16501;51.462;14.346;2022-07-25T08:26:05;99904.03;;;27.51;39.31
29569;BME280;16501;51.462;14.346;2022-07-25T08:28:31;99899.66;;;27.60;39.52
29569;BME280;16501;51.462;14.346;2022-07-25T08:30:57;99891.06;;;27.70;38.96
29569;BME280;16501;51.462;14.346;2022-07-25T08:33:23;99883.75;;;27.69;38.69
29569;BME280;16501;51.462;14.346;2022-07-25T08:35:51;99892.25;;;27.86;38.66
29569;BME280;16501;51.462;14.346;2022-07-25T08:38:17;99877.25;;;27.88;39.16
29569;BME280;16501;51.462;14.346;2022-07-25T08:40:43;99890.63;;;28.12;38.26
29569;BME280;16501;51.462;14.346;2022-07-25T08:43:13;99891.97;;;28.21;38.50
29569;BME280;16501;51.462;14.346;2022-07-25T08:45:49;99887.72;;;28.32;37.83
29569;BME280;16501;51.462;14.346;2022-07-25T08:48:16;99872.28;;;28.27;36.97
29569;BME280;16501;51.462;14.346;2022-07-25T08:50:42;99880.28;;;28.38;36.49
29569;BME280;16501;51.462;14.346;2022-07-25T08:53:08;99865.44;;;28.32;36.69
29569;BME280;16501;51.462;14.346;2022-07-25T08:55:33;99869.81;;;28.43;37.56
29569;BME280;16501;51.462;14.346;2022-07-25T08:57:59;99864.19;;;28.55;37.26
29569;BME280;16501;51.462;14.346;2022-07-25T09:00:25;99873.53;;;28.75;37.23
29569;BME280;16501;51.462;14.346;2022-07-25T09:03:00;99869.97;;;28.96;36.66
29569;BME280;16501;51.462;14.346;2022-07-25T09:05:27;99867.03;;;29.06;36.17
29569;BME280;16501;51.462;14.346;2022-07-25T09:07:53;99862.91;;;29.19;35.56
29569;BME280;16501;51.462;14.346;2022-07-25T09:10:24;99861.66;;;29.22;35.17
29569;BME280;16501;51.462;14.346;2022-07-25T09:12:51;99864.81;;;29.26;35.03
29569;BME280;16501;51.462;14.346;2022-07-25T09:15:25;99863.25;;;29.34;35.03
29569;BME280;16501;51.462;14.346;2022-07-25T09:17:51;99859.00;;;29.36;33.74
29569;BME280;16501;51.462;14.346;2022-07-25T09:20:18;99858.66;;;29.41;34.45
29569;BME280;16501;51.462;14.346;2022-07-25T09:22:44;99842.72;;;29.40;34.33
29569;BME280;16501;51.462;14.346;2022-07-25T09:25:20;99828.34;;;29.30;34.80
29569;BME280;16501;51.462;14.346;2022-07-25T09:27:46;99830.09;;;29.45;35.08
29569;BME280;16501;51.462;14.346;2022-07-25T09:30:13;99840.31;;;29.58;34.68
29569;BME280;16501;51.462;14.346;2022-07-25T09:32:38;99845.34;;;29.79;33.76
29569;BME280;16501;51.462;14.346;2022-07-25T09:35:04;99815.13;;;29.70;34.29
29569;BME280;16501;51.462;14.346;2022-07-25T09:37:30;99825.19;;;29.91;34.28
29569;BME280;16501;51.462;14.346;2022-07-25T09:39:55;99795.66;;;29.71;34.11
29569;BME280;16501;51.462;14.346;2022-07-25T09:42:26;99827.63;;;30.06;33.76
29569;BME280;16501;51.462;14.346;2022-07-25T09:45:08;99827.81;;;30.20;33.02
29569;BME280;16501;51.462;14.346;2022-07-25T09:47:50;99823.91;;;30.27;33.55
29569;BME280;16501;51.462;14.346;2022-07-25T09:50:16;99822.06;;;30.44;32.93
29569;BME280;16501;51.462;14.346;2022-07-25T09:52:44;99807.50;;;30.42;32.92
29569;BME280;16501;51.462;14.346;2022-07-25T09:55:09;99823.13;;;30.60;32.60
29569;BME280;16501;51.462;14.346;2022-07-25T09:57:36;99800.72;;;30.61;33.01
29569;BME280;16501;51.462;14.346;2022-07-25T10:00:03;99786.75;;;30.57;31.87
29569;BME280;16501;51.462;14.346;2022-07-25T10:02:40;99800.75;;;30.73;32.17
29569;BME280;16501;51.462;14.346;2022-07-25T10:07:48;99780.34;;;30.82;31.96
29569;BME280;16501;51.462;14.346;2022-07-25T10:10:26;99758.94;;;30.76;32.46
29569;BME280;16501;51.462;14.346;2022-07-25T10:13:07;99769.53;;;30.95;31.76
29569;BME280;16501;51.462;14.346;2022-07-25T10:15:51;99793.81;;;31.13;32.08
29569;BME280;16501;51.462;14.346;2022-07-25T10:18:23;99790.50;;;31.31;32.01
29569;BME280;16501;51.462;14.346;2022-07-25T10:20:53;99784.31;;;31.36;31.73
29569;BME280;16501;51.462;14.346;2022-07-25T10:23:25;99765.69;;;31.28;31.26
29569;BME280;16501;51.462;14.346;2022-07-25T10:26:09;99781.19;;;31.32;31.52
29569;BME280;16501;51.462;14.346;2022-07-25T10:28:45;99765.81;;;31.30;29.78
29569;BME280;16501;51.462;14.346;2022-07-25T10:31:32;99744.31;;;31.21;30.60
29569;BME280;16501;51.462;14.346;2022-07-25T10:34:02;99757.38;;;31.34;30.74
29569;BME280;16501;51.462;14.346;2022-07-25T10:36:49;99722.38;;;31.30;30.25
29569;BME280;16501;51.462;14.346;2022-07-25T10:39:18;99737.81;;;31.58;30.37
29569;BME280;16501;51.462;14.346;2022-07-25T10:41:53;99753.00;;;31.70;29.84
29569;BME280;16501;51.462;14.346;2022-07-25T10:44:20;99731.06;;;31.67;30.20
29569;BME280;16501;51.462;14.346;2022-07-25T10:47:07;99736.41;;;31.59;29.89
29569;BME280;16501;51.462;14.346;2022-07-25T10:49:38;99715.28;;;31.45;29.16
29569;BME280;16501;51.462;14.346;2022-07-25T10:52:04;99725.56;;;31.60;28.88
29569;BME280;16501;51.462;14.346;2022-07-25T10:54:35;99738.03;;;31.88;29.20
29569;BME280;16501;51.462;14.346;2022-07-25T10:57:04;99723.34;;;31.98;28.86
29569;BME280;16501;51.462;14.346;2022-07-25T10:59:36;99722.13;;;32.14;28.27
29569;BME280;16501;51.462;14.346;2022-07-25T11:02:08;99702.34;;;32.11;28.65
29569;BME280;16501;51.462;14.346;2022-07-25T11:04:56;99713.56;;;32.30;28.57
29569;BME280;16501;51.462;14.346;2022-07-25T11:07:21;99706.69;;;32.38;28.94
29569;BME280;16501;51.462;14.346;2022-07-25T11:09:55;99699.31;;;32.48;27.65
29569;BME280;16501;51.462;14.346;2022-07-25T11:12:21;99695.50;;;32.32;27.14
29569;BME280;16501;51.462;14.346;2022-07-25T11:14:46;99697.66;;;32.31;27.13
29569;BME280;16501;51.462;14.346;2022-07-25T11:17:18;99705.75;;;32.47;27.37
29569;BME280;16501;51.462;14.346;2022-07-25T11:19:58;99676.09;;;32.35;26.84
29569;BME280;16501;51.462;14.346;2022-07-25T11:22:25;99684.25;;;32.52;26.53
29569;BME280;16501;51.462;14.346;2022-07-25T11:24:50;99677.69;;;32.51;27.45
29569;BME280;16501;51.462;14.346;2022-07-25T11:27:26;99690.91;;;32.55;27.50
29569;BME280;16501;51.462;14.346;2022-07-25T11:30:15;99688.03;;;32.68;27.24
29569;BME280;16501;51.462;14.346;2022-07-25T11:32:46;99694.38;;;32.65;26.14
29569;BME280;16501;51.462;14.346;2022-07-25T11:35:19;99675.13;;;32.58;26.54
29569;BME280;16501;51.462;14.346;2022-07-25T11:37:45;99684.38;;;32.68;27.56
29569;BME280;16501;51.462;14.346;2022-07-25T11:40:13;99680.94;;;32.85;26.35
29569;BME280;16501;51.462;14.346;2022-07-25T11:42:48;99668.34;;;32.81;26.25
29569;BME280;16501;51.462;14.346;2022-07-25T11:47:41;99653.63;;;32.77;25.90
29569;BME280;16501;51.462;14.346;2022-07-25T11:50:07;99626.84;;;32.78;26.55
29569;BME280;16501;51.462;14.346;2022-07-25T11:52:37;99664.97;;;33.14;26.34
29569;BME280;16501;51.462;14.346;2022-07-25T11:55:06;99661.84;;;33.10;26.58
29569;BME280;16501;51.462;14.346;2022-07-25T11:57:37;99651.88;;;32.99;26.19
29569;BME280;16501;51.462;14.346;2022-07-25T12:00:20;99615.22;;;32.92;25.64
29569;BME280;16501;51.462;14.346;2022-07-25T12:02:48;99614.28;;;33.17;25.00
29569;BME280;16501;51.462;14.346;2022-07-25T12:05:17;99651.34;;;33.33;25.44
29569;BME280;16501;51.462;14.346;2022-07-25T12:07:51;99602.75;;;32.89;24.52
29569;BME280;16501;51.462;14.346;2022-07-25T12:10:22;99629.78;;;33.08;23.02
29569;BME280;16501;51.462;14.346;2022-07-25T12:12:54;99609.47;;;33.08;24.17
29569;BME280;16501;51.462;14.346;2022-07-25T12:15:29;99614.88;;;33.30;25.39
29569;BME280;16501;51.462;14.346;2022-07-25T12:17:56;99609.47;;;33.38;25.46
29569;BME280;16501;51.462;14.346;2022-07-25T12:20:27;99604.72;;;33.44;24.78
29569;BME280;16501;51.462;14.346;2022-07-25T12:22:55;99614.53;;;33.67;25.42
29569;BME280;16501;51.462;14.346;2022-07-25T12:25:22;99605.56;;;33.63;25.42
29569;BME280;16501;51.462;14.346;2022-07-25T12:27:48;99628.81;;;33.63;25.54
29569;BME280;16501;51.462;14.346;2022-07-25T12:30:14;99608.38;;;33.61;26.45
29569;BME280;16501;51.462;14.346;2022-07-25T12:32:40;99611.75;;;33.55;26.33
29569;BME280;16501;51.462;14.346;2022-07-25T12:35:07;99606.03;;;33.57;25.24
29569;BME280;16501;51.462;14.346;2022-07-25T12:37:35;99614.81;;;33.43;26.23
29569;BME280;16501;51.462;14.346;2022-07-25T12:40:02;99565.72;;;33.34;26.38
29569;BME280;16501;51.462;14.346;2022-07-25T12:42:29;99606.97;;;33.46;26.09
29569;BME280;16501;51.462;14.346;2022-07-25T12:44:54;99617.75;;;33.59;25.62
29569;BME280;16501;51.462;14.346;2022-07-25T12:47:21;99594.25;;;33.69;26.15
29569;BME280;16501;51.462;14.346;2022-07-25T12:49:47;99598.38;;;33.80;25.64
29569;BME280;16501;51.462;14.346;2022-07-25T12:52:12;99596.69;;;33.91;26.05